sensor_id;sensor_type;location;lat;lon;timestamp;P1;durP1;ratioP1;P2;durP2;ratioP2
8562;SDS011;16392;52.508;13.468;2024-03-25T00:01:52;5.03;;;2.85;;
8562;SDS011;16392;52.508;13.468;2024-03-25T00:04:19;5.65;;;3.28;;
8562;SDS011;16392;52.508;13.468;2024-03-25T00:06:47;5.07;;;3.55;;
8562;SDS011;16392;52.508;13.468;2024-03-25T00:09:13;4.43;;;2.83;;
8562;SDS011;16392;52.508;13.468;2024-03-25T00:11:40;3.90;;;2.40;;
8562;SDS011;16392;52.508;13.468;2024-03-25T00:14:09;4.32;;;2.88;;
8562;SDS011;16392;52.508;13.468;2024-03-25T00:16:39;4.45;;;2.60;;
8562;SDS011;16392;52.508;13.468;2024-03-25T00:19:06;3.67;;;2.53;;
8562;SDS011;16392;52.508;13.468;2024-03-25T00:21:31;4.13;;;2.58;;
8562;SDS011;16392;52.508;13.468;2024-03-25T00:23:58;5.95;;;3.00;;
8562;SDS011;16392;52.508;13.468;2024-03-25T00:26:26;4.38;;;2.63;;
8562;SDS011;16392;52.508;13.468;2024-03-25T00:28:52;3.35;;;2.40;;
8562;SDS011;16392;52.508;13.468;2024-03-25T00:31:18;6.13;;;2.78;;
8562;SDS011;16392;52.508;13.468;2024-03-25T00:33:46;5.82;;;3.65;;
8562;SDS011;16392;52.508;13.468;2024-03-25T00:36:12;4.30;;;2.47;;
8562;SDS011;16392;52.508;13.468;2024-03-25T00:38:39;5.85;;;3.20;;
8562;SDS011;16392;52.508;13.468;2024-03-25T00:41:04;6.95;;;3.30;;
8562;SDS011;16392;52.508;13.468;2024-03-25T00:43:31;4.47;;;2.80;;
8562;SDS011;16392;52.508;13.468;2024-03-25T00:45:57;4.22;;;2.85;;
8562;SDS011;16392;52.508;13.468;2024-03-25T00:48:24;5.68;;;3.42;;
8562;SDS011;16392;52.508;13.468;2024-03-25T00:50:51;13.35;;;4.32;;
8562;SDS011;16392;52.508;13.468;2024-03-25T00:53:18;9.25;;;3.45;;
8562;SDS011;16392;52.508;13.468;2024-03-25T00:55:44;5.18;;;3.05;;
8562;SDS011;16392;52.508;13.468;2024-03-25T00:58:11;5.55;;;3.38;;
8562;SDS011;16392;52.508;13.468;2024-03-25T01:00:37;7.47;;;3.28;;
8562;SDS011;16392;52.508;13.468;2024-03-25T01:03:04;5.82;;;3.20;;
8562;SDS011;16392;52.508;13.468;2024-03-25T01:05:30;8.88;;;3.30;;
8562;SDS011;16392;52.508;13.468;2024-03-25T01:07:58;7.03;;;3.47;;
8562;SDS011;16392;52.508;13.468;2024-03-25T01:10:27;7.68;;;4.10;;
8562;SDS011;16392;52.508;13.468;2024-03-25T01:12:56;7.07;;;3.22;;
8562;SDS011;16392;52.508;13.468;2024-03-25T01:15:24;6.90;;;3.50;;
8562;SDS011;16392;52.508;13.468;2024-03-25T01:17:51;6.18;;;3.50;;
8562;SDS011;16392;52.508;13.468;2024-03-25T01:20:19;6.13;;;3.72;;
8562;SDS011;16392;52.508;13.468;2024-03-25T01:22:46;9.32;;;4.45;;
8562;SDS011;16392;52.508;13.468;2024-03-25T01:25:14;5.88;;;3.58;;
8562;SDS011;16392;52.508;13.468;2024-03-25T01:27:40;8.23;;;4.03;;
8562;SDS011;16392;52.508;13.468;2024-03-25T01:30:07;7.13;;;3.92;;
8562;SDS011;16392;52.508;13.468;2024-03-25T01:32:34;7.40;;;3.97;;
8562;SDS011;16392;52.508;13.468;2024-03-25T01:35:00;6.50;;;3.58;;
8562;SDS011;16392;52.508;13.468;2024-03-25T01:37:28;6.57;;;3.67;;
8562;SDS011;16392;52.508;13.468;2024-03-25T01:39:54;8.02;;;4.32;;
8562;SDS011;16392;52.508;13.468;2024-03-25T01:42:22;9.63;;;4.00;;
8562;SDS011;16392;52.508;13.468;2024-03-25T01:44:48;6.35;;;3.95;;
8562;SDS011;16392;52.508;13.468;2024-03-25T01:47:15;7.35;;;3.83;;
8562;SDS011;16392;52.508;13.468;2024-03-25T01:49:41;7.15;;;3.83;;
8562;SDS011;16392;52.508;13.468;2024-03-25T01:52:08;7.82;;;3.97;;
8562;SDS011;16392;52.508;13.468;2024-03-25T01:54:34;7.25;;;4.13;;
8562;SDS011;16392;52.508;13.468;2024-03-25T01:57:01;11.50;;;4.90;;
8562;SDS011;16392;52.508;13.468;2024-03-25T01:59:30;7.43;;;4.03;;
8562;SDS011;16392;52.508;13.468;2024-03-25T02:01:58;12.38;;;4.85;;
8562;SDS011;16392;52.508;13.468;2024-03-25T02:04:24;8.05;;;4.00;;
8562;SDS011;16392;52.508;13.468;2024-03-25T02:06:51;8.45;;;4.35;;
8562;SDS011;16392;52.508;13.468;2024-03-25T02:09:18;8.82;;;4.20;;
8562;SDS011;16392;52.508;13.468;2024-03-25T02:11:46;8.75;;;3.22;;
8562;SDS011;16392;52.508;13.468;2024-03-25T02:14:12;4.40;;;2.90;;
8562;SDS011;16392;52.508;13.468;2024-03-25T02:16:40;2.63;;;1.83;;
8562;SDS011;16392;52.508;13.468;2024-03-25T02:19:05;2.25;;;1.50;;
8562;SDS011;16392;52.508;13.468;2024-03-25T02:21:34;1.83;;;1.30;;
8562;SDS011;16392;52.508;13.468;2024-03-25T02:24:00;2.28;;;1.20;;
8562;SDS011;16392;52.508;13.468;2024-03-25T02:26:34;1.73;;;0.90;;
8562;SDS011;16392;52.508;13.468;2024-03-25T02:29:00;1.73;;;1.02;;
8562;SDS011;16392;52.508;13.468;2024-03-25T02:31:28;2.38;;;1.10;;
8562;SDS011;16392;52.508;13.468;2024-03-25T02:33:54;2.40;;;0.90;;
8562;SDS011;16392;52.508;13.468;2024-03-25T02:36:21;2.35;;;1.30;;
8562;SDS011;16392;52.508;13.468;2024-03-25T02:38:47;1.88;;;1.10;;
8562;SDS011;16392;52.508;13.468;2024-03-25T02:41:14;1.58;;;1.00;;
8562;SDS011;16392;52.508;13.468;2024-03-25T02:43:41;1.80;;;1.30;;
8562;SDS011;16392;52.508;13.468;2024-03-25T02:46:10;1.83;;;1.50;;
8562;SDS011;16392;52.508;13.468;2024-03-25T02:48:35;3.35;;;1.65;;
8562;SDS011;16392;52.508;13.468;2024-03-25T02:51:02;1.52;;;1.20;;
8562;SDS011;16392;52.508;13.468;2024-03-25T02:53:28;3.08;;;2.00;;
8562;SDS011;16392;52.508;13.468;2024-03-25T02:55:54;2.72;;;1.50;;
8562;SDS011;16392;52.508;13.468;2024-03-25T02:58:20;5.35;;;2.03;;
8562;SDS011;16392;52.508;13.468;2024-03-25T03:00:48;4.03;;;1.45;;
8562;SDS011;16392;52.508;13.468;2024-03-25T03:03:14;3.17;;;1.17;;
8562;SDS011;16392;52.508;13.468;2024-03-25T03:05:40;1.05;;;0.80;;
8562;SDS011;16392;52.508;13.468;2024-03-25T03:08:06;2.92;;;1.52;;
8562;SDS011;16392;52.508;13.468;2024-03-25T03:10:33;2.70;;;1.48;;
8562;SDS011;16392;52.508;13.468;2024-03-25T03:12:59;3.38;;;1.38;;
8562;SDS011;16392;52.508;13.468;2024-03-25T03:15:25;2.28;;;1.60;;
8562;SDS011;16392;52.508;13.468;2024-03-25T03:17:52;3.03;;;2.00;;
8562;SDS011;16392;52.508;13.468;2024-03-25T03:20:19;3.13;;;1.95;;
8562;SDS011;16392;52.508;13.468;2024-03-25T03:22:45;4.43;;;2.25;;
8562;SDS011;16392;52.508;13.468;2024-03-25T03:25:12;3.35;;;1.88;;
8562;SDS011;16392;52.508;13.468;2024-03-25T03:27:38;4.18;;;2.25;;
8562;SDS011;16392;52.508;13.468;2024-03-25T03:30:05;4.05;;;2.03;;
8562;SDS011;16392;52.508;13.468;2024-03-25T03:32:32;3.88;;;2.53;;
8562;SDS011;16392;52.508;13.468;2024-03-25T03:35:00;5.72;;;2.80;;
8562;SDS011;16392;52.508;13.468;2024-03-25T03:37:25;5.55;;;3.10;;
8562;SDS011;16392;52.508;13.468;2024-03-25T03:39:52;6.53;;;3.13;;
8562;SDS011;16392;52.508;13.468;2024-03-25T03:42:18;6.43;;;3.10;;
8562;SDS011;16392;52.508;13.468;2024-03-25T03:44:45;6.82;;;3.13;;
8562;SDS011;16392;52.508;13.468;2024-03-25T03:47:11;6.47;;;2.95;;
8562;SDS011;16392;52.508;13.468;2024-03-25T03:49:37;7.32;;;3.35;;
8562;SDS011;16392;52.508;13.468;2024-03-25T03:52:05;3.67;;;2.72;;
8562;SDS011;16392;52.508;13.468;2024-03-25T03:54:32;5.90;;;2.70;;
8562;SDS011;16392;52.508;13.468;2024-03-25T03:56:57;4.68;;;2.50;;
8562;SDS011;16392;52.508;13.468;2024-03-25T03:59:24;4.40;;;2.80;;
8562;SDS011;16392;52.508;13.468;2024-03-25T04:01:51;5.72;;;2.97;;
8562;SDS011;16392;52.508;13.468;2024-03-25T04:04:19;5.60;;;2.72;;
8562;SDS011;16392;52.508;13.468;2024-03-25T04:06:44;4.53;;;2.20;;
8562;SDS011;16392;52.508;13.468;2024-03-25T04:09:12;3.97;;;1.90;;
8562;SDS011;16392;52.508;13.468;2024-03-25T04:11:38;5.38;;;2.33;;
8562;SDS011;16392;52.508;13.468;2024-03-25T04:14:05;3.97;;;2.10;;
8562;SDS011;16392;52.508;13.468;2024-03-25T04:16:32;3.90;;;1.88;;
8562;SDS011;16392;52.508;13.468;2024-03-25T04:18:58;7.40;;;2.42;;
8562;SDS011;16392;52.508;13.468;2024-03-25T04:21:24;4.78;;;2.35;;
8562;SDS011;16392;52.508;13.468;2024-03-25T04:23:51;3.83;;;1.98;;
8562;SDS011;16392;52.508;13.468;2024-03-25T04:26:18;3.05;;;1.98;;
8562;SDS011;16392;52.508;13.468;2024-03-25T04:28:45;4.63;;;2.63;;
8562;SDS011;16392;52.508;13.468;2024-03-25T04:31:10;4.38;;;1.77;;
8562;SDS011;16392;52.508;13.468;2024-03-25T04:33:37;4.13;;;2.33;;
8562;SDS011;16392;52.508;13.468;2024-03-25T04:36:04;6.20;;;2.42;;
8562;SDS011;16392;52.508;13.468;2024-03-25T04:38:32;4.40;;;2.40;;
8562;SDS011;16392;52.508;13.468;2024-03-25T04:40:58;4.53;;;2.65;;
8562;SDS011;16392;52.508;13.468;2024-03-25T04:43:25;4.65;;;2.28;;
8562;SDS011;16392;52.508;13.468;2024-03-25T04:45:51;6.07;;;2.17;;
8562;SDS011;16392;52.508;13.468;2024-03-25T04:48:16;3.28;;;2.17;;
8562;SDS011;16392;52.508;13.468;2024-03-25T04:50:42;7.65;;;2.38;;
8562;SDS011;16392;52.508;13.468;2024-03-25T04:53:08;8.60;;;2.42;;
8562;SDS011;16392;52.508;13.468;2024-03-25T04:55:40;4.85;;;2.97;;
8562;SDS011;16392;52.508;13.468;2024-03-25T04:58:06;4.68;;;2.42;;
8562;SDS011;16392;52.508;13.468;2024-03-25T05:00:33;4.28;;;2.15;;
8562;SDS011;16392;52.508;13.468;2024-03-25T05:02:59;5.30;;;2.67;;
8562;SDS011;16392;52.508;13.468;2024-03-25T05:05:25;3.95;;;2.35;;
8562;SDS011;16392;52.508;13.468;2024-03-25T05:07:51;8.82;;;3.17;;
8562;SDS011;16392;52.508;13.468;2024-03-25T05:10:18;6.43;;;3.13;;
8562;SDS011;16392;52.508;13.468;2024-03-25T05:12:43;6.57;;;3.13;;
8562;SDS011;16392;52.508;13.468;2024-03-25T05:15:09;7.35;;;3.00;;
8562;SDS011;16392;52.508;13.468;2024-03-25T05:17:37;7.95;;;3.17;;
8562;SDS011;16392;52.508;13.468;2024-03-25T05:20:03;10.80;;;3.65;;
8562;SDS011;16392;52.508;13.468;2024-03-25T05:22:30;5.50;;;3.88;;
8562;SDS011;16392;52.508;13.468;2024-03-25T05:24:56;7.95;;;3.45;;
8562;SDS011;16392;52.508;13.468;2024-03-25T05:27:22;5.60;;;2.65;;
8562;SDS011;16392;52.508;13.468;2024-03-25T05:29:48;3.83;;;2.38;;
8562;SDS011;16392;52.508;13.468;2024-03-25T05:32:15;6.55;;;2.95;;
8562;SDS011;16392;52.508;13.468;2024-03-25T05:34:43;6.68;;;2.50;;
8562;SDS011;16392;52.508;13.468;2024-03-25T05:37:10;4.88;;;2.33;;
8562;SDS011;16392;52.508;13.468;2024-03-25T05:39:36;4.63;;;2.25;;
8562;SDS011;16392;52.508;13.468;2024-03-25T05:42:03;4.03;;;2.45;;
8562;SDS011;16392;52.508;13.468;2024-03-25T05:44:29;4.68;;;1.95;;
8562;SDS011;16392;52.508;13.468;2024-03-25T05:46:55;4.53;;;1.83;;
8562;SDS011;16392;52.508;13.468;2024-03-25T05:49:20;4.68;;;2.42;;
8562;SDS011;16392;52.508;13.468;2024-03-25T05:51:48;6.63;;;2.58;;
8562;SDS011;16392;52.508;13.468;2024-03-25T05:54:13;4.60;;;2.38;;
8562;SDS011;16392;52.508;13.468;2024-03-25T05:56:39;4.13;;;2.80;;
8562;SDS011;16392;52.508;13.468;2024-03-25T05:59:05;8.55;;;2.70;;
8562;SDS011;16392;52.508;13.468;2024-03-25T06:01:31;4.15;;;2.63;;
8562;SDS011;16392;52.508;13.468;2024-03-25T06:03:57;6.88;;;2.83;;
8562;SDS011;16392;52.508;13.468;2024-03-25T06:06:23;6.13;;;2.50;;
8562;SDS011;16392;52.508;13.468;2024-03-25T06:08:50;6.93;;;2.83;;
8562;SDS011;16392;52.508;13.468;2024-03-25T06:11:16;7.70;;;3.50;;
8562;SDS011;16392;52.508;13.468;2024-03-25T06:13:45;8.43;;;3.72;;
8562;SDS011;16392;52.508;13.468;2024-03-25T06:16:11;5.57;;;3.00;;
8562;SDS011;16392;52.508;13.468;2024-03-25T06:18:37;6.65;;;3.53;;
8562;SDS011;16392;52.508;13.468;2024-03-25T06:21:03;8.30;;;3.67;;
8562;SDS011;16392;52.508;13.468;2024-03-25T06:23:29;5.88;;;2.95;;
8562;SDS011;16392;52.508;13.468;2024-03-25T06:25:56;5.65;;;2.72;;
8562;SDS011;16392;52.508;13.468;2024-03-25T06:28:22;4.03;;;2.78;;
8562;SDS011;16392;52.508;13.468;2024-03-25T06:30:49;4.07;;;2.40;;
8562;SDS011;16392;52.508;13.468;2024-03-25T06:33:34;6.15;;;2.33;;
8562;SDS011;16392;52.508;13.468;2024-03-25T06:36:19;8.70;;;3.78;;
8562;SDS011;16392;52.508;13.468;2024-03-25T06:38:46;9.95;;;3.83;;
8562;SDS011;16392;52.508;13.468;2024-03-25T06:41:13;11.70;;;3.28;;
8562;SDS011;16392;52.508;13.468;2024-03-25T06:43:40;7.97;;;3.58;;
8562;SDS011;16392;52.508;13.468;2024-03-25T06:46:06;6.43;;;3.38;;
8562;SDS011;16392;52.508;13.468;2024-03-25T06:48:32;8.30;;;3.80;;
8562;SDS011;16392;52.508;13.468;2024-03-25T06:50:59;5.50;;;3.28;;
8562;SDS011;16392;52.508;13.468;2024-03-25T06:53:25;4.45;;;2.88;;
8562;SDS011;16392;52.508;13.468;2024-03-25T06:55:51;9.57;;;4.35;;
8562;SDS011;16392;52.508;13.468;2024-03-25T06:58:20;6.03;;;4.00;;
8562;SDS011;16392;52.508;13.468;2024-03-25T07:00:47;9.85;;;5.00;;
8562;SDS011;16392;52.508;13.468;2024-03-25T07:03:14;8.35;;;4.88;;
8562;SDS011;16392;52.508;13.468;2024-03-25T07:05:40;6.55;;;3.97;;
8562;SDS011;16392;52.508;13.468;2024-03-25T07:08:06;7.15;;;3.75;;
8562;SDS011;16392;52.508;13.468;2024-03-25T07:10:34;5.93;;;3.65;;
8562;SDS011;16392;52.508;13.468;2024-03-25T07:13:00;6.72;;;3.28;;
8562;SDS011;16392;52.508;13.468;2024-03-25T07:15:27;8.73;;;3.53;;
8562;SDS011;16392;52.508;13.468;2024-03-25T07:17:52;10.52;;;3.65;;
8562;SDS011;16392;52.508;13.468;2024-03-25T07:20:19;7.95;;;3.45;;
8562;SDS011;16392;52.508;13.468;2024-03-25T07:22:49;7.50;;;3.67;;
8562;SDS011;16392;52.508;13.468;2024-03-25T07:25:15;9.07;;;4.35;;
8562;SDS011;16392;52.508;13.468;2024-03-25T07:27:41;6.75;;;3.50;;
8562;SDS011;16392;52.508;13.468;2024-03-25T07:30:07;5.28;;;3.38;;
8562;SDS011;16392;52.508;13.468;2024-03-25T07:32:35;4.93;;;2.78;;
8562;SDS011;16392;52.508;13.468;2024-03-25T07:35:01;3.85;;;2.25;;
8562;SDS011;16392;52.508;13.468;2024-03-25T07:37:27;6.55;;;3.33;;
8562;SDS011;16392;52.508;13.468;2024-03-25T07:39:53;6.95;;;2.38;;
8562;SDS011;16392;52.508;13.468;2024-03-25T07:42:19;8.98;;;2.50;;
8562;SDS011;16392;52.508;13.468;2024-03-25T07:44:45;5.60;;;2.72;;
8562;SDS011;16392;52.508;13.468;2024-03-25T07:47:11;4.70;;;2.22;;
8562;SDS011;16392;52.508;13.468;2024-03-25T07:49:38;4.40;;;2.20;;
8562;SDS011;16392;52.508;13.468;2024-03-25T07:52:05;6.13;;;2.53;;
8562;SDS011;16392;52.508;13.468;2024-03-25T07:54:31;5.07;;;2.70;;
8562;SDS011;16392;52.508;13.468;2024-03-25T07:56:57;2.17;;;1.50;;
8562;SDS011;16392;52.508;13.468;2024-03-25T07:59:23;3.50;;;2.03;;
8562;SDS011;16392;52.508;13.468;2024-03-25T08:01:49;4.07;;;2.40;;
8562;SDS011;16392;52.508;13.468;2024-03-25T08:04:15;7.15;;;1.88;;
8562;SDS011;16392;52.508;13.468;2024-03-25T08:06:42;3.00;;;2.08;;
8562;SDS011;16392;52.508;13.468;2024-03-25T08:09:08;3.38;;;1.90;;
8562;SDS011;16392;52.508;13.468;2024-03-25T08:11:35;3.00;;;1.95;;
8562;SDS011;16392;52.508;13.468;2024-03-25T08:14:01;2.60;;;1.73;;
8562;SDS011;16392;52.508;13.468;2024-03-25T08:16:27;3.25;;;1.88;;
8562;SDS011;16392;52.508;13.468;2024-03-25T08:18:53;2.80;;;1.90;;
8562;SDS011;16392;52.508;13.468;2024-03-25T08:21:19;4.88;;;2.28;;
8562;SDS011;16392;52.508;13.468;2024-03-25T08:23:46;4.20;;;2.20;;
8562;SDS011;16392;52.508;13.468;2024-03-25T08:26:12;5.35;;;2.55;;
8562;SDS011;16392;52.508;13.468;2024-03-25T08:28:38;4.38;;;2.38;;
8562;SDS011;16392;52.508;13.468;2024-03-25T08:31:05;5.47;;;3.13;;
8562;SDS011;16392;52.508;13.468;2024-03-25T08:33:34;6.43;;;2.78;;
8562;SDS011;16392;52.508;13.468;2024-03-25T08:36:00;6.22;;;2.92;;
8562;SDS011;16392;52.508;13.468;2024-03-25T08:38:26;7.25;;;2.78;;
8562;SDS011;16392;52.508;13.468;2024-03-25T08:40:53;5.15;;;3.08;;
8562;SDS011;16392;52.508;13.468;2024-03-25T08:43:21;4.70;;;2.88;;
8562;SDS011;16392;52.508;13.468;2024-03-25T08:45:47;6.28;;;3.00;;
8562;SDS011;16392;52.508;13.468;2024-03-25T08:48:13;7.93;;;3.00;;
8562;SDS011;16392;52.508;13.468;2024-03-25T08:50:38;9.68;;;3.38;;
8562;SDS011;16392;52.508;13.468;2024-03-25T08:53:05;5.22;;;2.60;;
8562;SDS011;16392;52.508;13.468;2024-03-25T08:55:31;4.57;;;2.55;;
8562;SDS011;16392;52.508;13.468;2024-03-25T08:57:58;6.40;;;2.83;;
8562;SDS011;16392;52.508;13.468;2024-03-25T09:00:24;8.15;;;3.30;;
8562;SDS011;16392;52.508;13.468;2024-03-25T09:02:50;6.13;;;3.50;;
8562;SDS011;16392;52.508;13.468;2024-03-25T09:05:16;4.03;;;2.67;;
8562;SDS011;16392;52.508;13.468;2024-03-25T09:07:43;5.28;;;2.90;;
8562;SDS011;16392;52.508;13.468;2024-03-25T09:10:10;6.25;;;3.08;;
8562;SDS011;16392;52.508;13.468;2024-03-25T09:12:55;4.85;;;2.90;;
8562;SDS011;16392;52.508;13.468;2024-03-25T09:15:22;5.35;;;2.72;;
8562;SDS011;16392;52.508;13.468;2024-03-25T09:17:48;4.75;;;2.30;;
8562;SDS011;16392;52.508;13.468;2024-03-25T09:20:14;5.07;;;2.83;;
8562;SDS011;16392;52.508;13.468;2024-03-25T09:22:41;4.90;;;2.80;;
8562;SDS011;16392;52.508;13.468;2024-03-25T09:25:08;5.10;;;2.67;;
8562;SDS011;16392;52.508;13.468;2024-03-25T09:27:34;6.10;;;3.20;;
8562;SDS011;16392;52.508;13.468;2024-03-25T09:29:59;5.82;;;2.78;;
8562;SDS011;16392;52.508;13.468;2024-03-25T09:32:27;6.10;;;2.85;;
8562;SDS011;16392;52.508;13.468;2024-03-25T09:34:53;5.10;;;2.85;;
8562;SDS011;16392;52.508;13.468;2024-03-25T09:37:18;3.15;;;1.88;;
8562;SDS011;16392;52.508;13.468;2024-03-25T09:39:44;3.10;;;2.20;;
8562;SDS011;16392;52.508;13.468;2024-03-25T09:42:12;3.90;;;2.70;;
8562;SDS011;16392;52.508;13.468;2024-03-25T09:44:40;2.90;;;2.20;;
8562;SDS011;16392;52.508;13.468;2024-03-25T09:47:06;4.88;;;2.55;;
8562;SDS011;16392;52.508;13.468;2024-03-25T09:49:34;2.85;;;2.08;;
8562;SDS011;16392;52.508;13.468;2024-03-25T09:52:02;4.07;;;2.17;;
8562;SDS011;16392;52.508;13.468;2024-03-25T09:54:28;3.78;;;2.10;;
8562;SDS011;16392;52.508;13.468;2024-03-25T09:56:54;3.33;;;1.92;;
8562;SDS011;16392;52.508;13.468;2024-03-25T09:59:21;3.92;;;2.45;;
8562;SDS011;16392;52.508;13.468;2024-03-25T10:01:47;4.57;;;2.22;;
8562;SDS011;16392;52.508;13.468;2024-03-25T10:04:14;2.85;;;2.20;;
8562;SDS011;16392;52.508;13.468;2024-03-25T10:06:42;3.15;;;2.38;;
8562;SDS011;16392;52.508;13.468;2024-03-25T10:09:08;3.65;;;2.03;;
8562;SDS011;16392;52.508;13.468;2024-03-25T10:11:34;5.65;;;2.60;;
8562;SDS011;16392;52.508;13.468;2024-03-25T10:14:00;3.08;;;2.00;;
8562;SDS011;16392;52.508;13.468;2024-03-25T10:16:26;3.60;;;1.92;;
8562;SDS011;16392;52.508;13.468;2024-03-25T10:18:52;3.13;;;2.10;;
8562;SDS011;16392;52.508;13.468;2024-03-25T10:21:19;2.90;;;1.73;;
8562;SDS011;16392;52.508;13.468;2024-03-25T10:23:47;4.22;;;1.90;;
8562;SDS011;16392;52.508;13.468;2024-03-25T10:26:26;4.88;;;2.25;;
8562;SDS011;16392;52.508;13.468;2024-03-25T10:28:59;2.35;;;1.83;;
8562;SDS011;16392;52.508;13.468;2024-03-25T10:31:26;2.40;;;1.73;;
8562;SDS011;16392;52.508;13.468;2024-03-25T10:33:58;4.40;;;1.80;;
8562;SDS011;16392;52.508;13.468;2024-03-25T10:36:27;3.20;;;2.20;;
8562;SDS011;16392;52.508;13.468;2024-03-25T10:38:55;6.20;;;2.08;;
8562;SDS011;16392;52.508;13.468;2024-03-25T10:41:22;7.90;;;1.95;;
8562;SDS011;16392;52.508;13.468;2024-03-25T10:43:50;2.22;;;1.45;;
8562;SDS011;16392;52.508;13.468;2024-03-25T10:46:19;4.45;;;1.63;;
8562;SDS011;16392;52.508;13.468;2024-03-25T10:48:48;2.20;;;1.65;;
8562;SDS011;16392;52.508;13.468;2024-03-25T10:51:19;2.72;;;1.50;;
8562;SDS011;16392;52.508;13.468;2024-03-25T10:53:46;2.38;;;1.35;;
8562;SDS011;16392;52.508;13.468;2024-03-25T10:56:18;2.03;;;1.20;;
8562;SDS011;16392;52.508;13.468;2024-03-25T10:58:48;1.67;;;1.20;;
8562;SDS011;16392;52.508;13.468;2024-03-25T11:01:16;1.45;;;1.15;;
8562;SDS011;16392;52.508;13.468;2024-03-25T11:03:43;3.50;;;1.50;;
8562;SDS011;16392;52.508;13.468;2024-03-25T11:06:10;1.50;;;1.35;;
8562;SDS011;16392;52.508;13.468;2024-03-25T11:08:36;2.78;;;1.30;;
8562;SDS011;16392;52.508;13.468;2024-03-25T11:11:02;3.47;;;1.27;;
8562;SDS011;16392;52.508;13.468;2024-03-25T11:13:31;1.45;;;1.00;;
8562;SDS011;16392;52.508;13.468;2024-03-25T11:15:57;2.25;;;1.25;;
8562;SDS011;16392;52.508;13.468;2024-03-25T11:18:24;1.50;;;1.17;;
8562;SDS011;16392;52.508;13.468;2024-03-25T11:20:59;2.38;;;1.02;;
8562;SDS011;16392;52.508;13.468;2024-03-25T11:23:26;1.10;;;1.00;;
8562;SDS011;16392;52.508;13.468;2024-03-25T11:25:54;1.02;;;0.90;;
8562;SDS011;16392;52.508;13.468;2024-03-25T11:28:26;1.77;;;1.00;;
8562;SDS011;16392;52.508;13.468;2024-03-25T11:30:54;2.25;;;0.80;;
8562;SDS011;16392;52.508;13.468;2024-03-25T11:33:21;0.88;;;0.75;;
8562;SDS011;16392;52.508;13.468;2024-03-25T11:35:47;2.53;;;1.35;;
8562;SDS011;16392;52.508;13.468;2024-03-25T11:38:15;1.15;;;0.90;;
8562;SDS011;16392;52.508;13.468;2024-03-25T11:40:42;3.13;;;1.63;;
8562;SDS011;16392;52.508;13.468;2024-03-25T11:43:17;3.33;;;1.23;;
8562;SDS011;16392;52.508;13.468;2024-03-25T11:45:46;3.50;;;1.20;;
8562;SDS011;16392;52.508;13.468;2024-03-25T11:48:14;1.15;;;1.05;;
8562;SDS011;16392;52.508;13.468;2024-03-25T11:50:41;2.03;;;1.10;;
8562;SDS011;16392;52.508;13.468;2024-03-25T11:53:10;1.92;;;1.23;;
8562;SDS011;16392;52.508;13.468;2024-03-25T11:55:36;3.28;;;1.40;;
8562;SDS011;16392;52.508;13.468;2024-03-25T11:58:02;2.03;;;1.30;;
8562;SDS011;16392;52.508;13.468;2024-03-25T12:00:29;2.05;;;1.00;;
8562;SDS011;16392;52.508;13.468;2024-03-25T12:02:55;1.40;;;0.82;;
8562;SDS011;16392;52.508;13.468;2024-03-25T12:05:23;2.95;;;1.13;;
8562;SDS011;16392;52.508;13.468;2024-03-25T12:07:49;1.58;;;1.10;;
8562;SDS011;16392;52.508;13.468;2024-03-25T12:10:15;2.25;;;1.10;;
8562;SDS011;16392;52.508;13.468;2024-03-25T12:12:59;2.13;;;1.10;;
8562;SDS011;16392;52.508;13.468;2024-03-25T12:15:26;3.30;;;1.13;;
8562;SDS011;16392;52.508;13.468;2024-03-25T12:17:52;3.20;;;1.20;;
8562;SDS011;16392;52.508;13.468;2024-03-25T12:20:20;1.88;;;1.20;;
8562;SDS011;16392;52.508;13.468;2024-03-25T12:22:48;1.73;;;1.25;;
8562;SDS011;16392;52.508;13.468;2024-03-25T12:25:15;3.25;;;1.48;;
8562;SDS011;16392;52.508;13.468;2024-03-25T12:27:45;0.98;;;0.80;;
8562;SDS011;16392;52.508;13.468;2024-03-25T12:30:12;3.38;;;1.30;;
8562;SDS011;16392;52.508;13.468;2024-03-25T12:32:38;2.47;;;1.08;;
8562;SDS011;16392;52.508;13.468;2024-03-25T12:35:06;2.63;;;1.15;;
8562;SDS011;16392;52.508;13.468;2024-03-25T12:37:35;2.65;;;1.10;;
8562;SDS011;16392;52.508;13.468;2024-03-25T12:40:04;1.92;;;1.23;;
8562;SDS011;16392;52.508;13.468;2024-03-25T12:42:31;2.53;;;1.25;;
8562;SDS011;16392;52.508;13.468;2024-03-25T12:44:57;1.02;;;0.93;;
8562;SDS011;16392;52.508;13.468;2024-03-25T12:47:25;1.33;;;0.73;;
8562;SDS011;16392;52.508;13.468;2024-03-25T12:49:51;1.83;;;1.40;;
8562;SDS011;16392;52.508;13.468;2024-03-25T12:52:18;2.13;;;1.38;;
8562;SDS011;16392;52.508;13.468;2024-03-25T12:54:44;1.67;;;1.20;;
8562;SDS011;16392;52.508;13.468;2024-03-25T12:57:12;2.85;;;1.08;;
8562;SDS011;16392;52.508;13.468;2024-03-25T12:59:38;5.45;;;1.20;;
8562;SDS011;16392;52.508;13.468;2024-03-25T13:02:05;1.13;;;1.00;;
8562;SDS011;16392;52.508;13.468;2024-03-25T13:04:34;1.67;;;1.10;;
8562;SDS011;16392;52.508;13.468;2024-03-25T13:07:00;1.83;;;1.15;;
8562;SDS011;16392;52.508;13.468;2024-03-25T13:09:27;1.48;;;1.10;;
8562;SDS011;16392;52.508;13.468;2024-03-25T13:11:53;4.22;;;1.10;;
8562;SDS011;16392;52.508;13.468;2024-03-25T13:14:20;1.73;;;0.95;;
8562;SDS011;16392;52.508;13.468;2024-03-25T13:16:47;1.33;;;0.90;;
8562;SDS011;16392;52.508;13.468;2024-03-25T13:19:13;2.53;;;1.00;;
8562;SDS011;16392;52.508;13.468;2024-03-25T13:21:39;2.05;;;1.08;;
8562;SDS011;16392;52.508;13.468;2024-03-25T13:24:06;1.63;;;1.00;;
8562;SDS011;16392;52.508;13.468;2024-03-25T13:26:35;2.42;;;0.90;;
8562;SDS011;16392;52.508;13.468;2024-03-25T13:29:01;1.48;;;1.05;;
8562;SDS011;16392;52.508;13.468;2024-03-25T13:31:28;2.22;;;1.30;;
8562;SDS011;16392;52.508;13.468;2024-03-25T13:33:55;2.15;;;1.13;;
8562;SDS011;16392;52.508;13.468;2024-03-25T13:36:21;1.65;;;1.13;;
8562;SDS011;16392;52.508;13.468;2024-03-25T13:38:47;1.67;;;1.08;;
8562;SDS011;16392;52.508;13.468;2024-03-25T13:41:13;2.60;;;1.10;;
8562;SDS011;16392;52.508;13.468;2024-03-25T13:43:41;2.00;;;0.80;;
8562;SDS011;16392;52.508;13.468;2024-03-25T13:46:08;2.58;;;0.90;;
8562;SDS011;16392;52.508;13.468;2024-03-25T13:48:35;1.38;;;1.00;;
8562;SDS011;16392;52.508;13.468;2024-03-25T13:51:01;0.85;;;0.70;;
8562;SDS011;16392;52.508;13.468;2024-03-25T13:53:26;2.60;;;0.90;;
8562;SDS011;16392;52.508;13.468;2024-03-25T13:55:52;1.98;;;0.90;;
8562;SDS011;16392;52.508;13.468;2024-03-25T13:58:18;3.55;;;1.00;;
8562;SDS011;16392;52.508;13.468;2024-03-25T14:00:45;1.65;;;0.70;;
8562;SDS011;16392;52.508;13.468;2024-03-25T14:03:11;1.85;;;0.88;;
8562;SDS011;16392;52.508;13.468;2024-03-25T14:05:38;1.52;;;0.60;;
8562;SDS011;16392;52.508;13.468;2024-03-25T14:08:04;0.93;;;0.88;;
8562;SDS011;16392;52.508;13.468;2024-03-25T14:10:31;1.23;;;0.80;;
8562;SDS011;16392;52.508;13.468;2024-03-25T14:12:57;0.82;;;0.75;;
8562;SDS011;16392;52.508;13.468;2024-03-25T14:15:23;2.38;;;1.05;;
8562;SDS011;16392;52.508;13.468;2024-03-25T14:17:49;1.10;;;0.80;;
8562;SDS011;16392;52.508;13.468;2024-03-25T14:20:15;1.90;;;0.90;;
8562;SDS011;16392;52.508;13.468;2024-03-25T14:22:42;1.92;;;1.20;;
8562;SDS011;16392;52.508;13.468;2024-03-25T14:25:08;1.73;;;0.90;;
8562;SDS011;16392;52.508;13.468;2024-03-25T14:27:34;0.90;;;0.90;;
8562;SDS011;16392;52.508;13.468;2024-03-25T14:30:00;1.52;;;1.10;;
8562;SDS011;16392;52.508;13.468;2024-03-25T14:32:26;1.48;;;0.90;;
8562;SDS011;16392;52.508;13.468;2024-03-25T14:34:53;2.03;;;1.10;;
8562;SDS011;16392;52.508;13.468;2024-03-25T14:37:19;1.08;;;0.70;;
8562;SDS011;16392;52.508;13.468;2024-03-25T14:39:46;0.80;;;0.65;;
8562;SDS011;16392;52.508;13.468;2024-03-25T14:42:12;1.27;;;1.10;;
8562;SDS011;16392;52.508;13.468;2024-03-25T14:44:38;2.15;;;0.93;;
8562;SDS011;16392;52.508;13.468;2024-03-25T14:47:04;3.28;;;1.02;;